Time;durP1;ratioP1;P1;durP2;ratioP2;P2;SDS_P1;SDS_P2;PMS_P1;PMS_P2;Temp;Humidity;BMP_temperature;BMP_pressure;BME280_temperature;BME280_humidity;BME280_pressure;Samples;Min_cycle;Max_cycle;Signal;HPM_P1;HPM_P2
2023/10/15 00:00:13;;;;;;;0.15;0.15;;;;;;;;;;5081745;28;20044;-68
2023/10/15 00:02:44;;;;;;;0.00;0.00;;;;;;;;;;5081255;28;20047;-68
2023/10/15 00:05:15;;;;;;;0.10;0.10;;;;;;;;;;5085140;28;20040;-68
2023/10/15 00:07:42;;;;;;;0.05;0.05;;;;;;;;;;5080718;28;20053;-68
2023/10/15 00:10:14;;;;;;;0.00;0.00;;;;;;;;;;5083167;28;20055;-68
2023/10/15 00:12:42;;;;;;;;;;;;;;;;;;5078370;28;20135;-68
2023/10/15 00:15:15;;;;;;;0.00;0.00;;;;;;;;;;5081738;28;19967;-68
2023/10/15 00:17:43;;;;;;;0.00;0.00;;;;;;;;;;5083051;28;20049;-68
2023/10/15 00:20:13;;;;;;;0.00;0.00;;;;;;;;;;5067223;28;20416;-68
2023/10/15 00:22:42;;;;;;;0.00;0.00;;;;;;;;;;5079592;28;20048;-68
2023/10/15 00:25:18;;;;;;;0.00;0.00;;;;;;;;;;5078845;28;20089;-68
2023/10/15 00:27:52;;;;;;;0.00;0.00;;;;;;;;;;5082480;28;20105;-68
2023/10/15 00:30:21;;;;;;;0.00;0.00;;;;;;;;;;5075903;28;20528;-68
2023/10/15 00:32:52;;;;;;;0.00;0.00;;;;;;;;;;5076793;28;20596;-68
2023/10/15 00:35:20;;;;;;;0.00;0.00;;;;;;;;;;5056025;28;20382;-68
2023/10/15 00:37:57;;;;;;;0.00;0.00;;;;;;;;;;5061635;28;20040;-68
2023/10/15 00:40:26;;;;;;;0.00;0.00;;;;;;;;;;5077589;28;20052;-68
2023/10/15 00:42:57;;;;;;;0.00;0.00;;;;;;;;;;5078866;28;20047;-68
2023/10/15 00:45:25;;;;;;;0.00;0.00;;;;;;;;;;5066220;28;20497;-68
2023/10/15 00:50:38;;;;;;;0.10;0.10;;;;;;;;;;5079255;28;20054;-68
2023/10/15 00:53:21;;;;;;;0.00;0.00;;;;;;;;;;5084372;28;20113;-68
2023/10/15 00:55:53;;;;;;;0.00;0.00;;;;;;;;;;5076632;28;20413;-68
2023/10/15 00:58:45;;;;;;;0.20;0.20;;;;;;;;;;5077197;28;20047;-68
2023/10/15 01:03:55;;;;;;;0.00;0.00;;;;;;;;;;5081660;28;20055;-69
2023/10/15 01:06:30;;;;;;;0.00;0.00;;;;;;;;;;5067189;28;20534;-68
2023/10/15 01:09:09;;;;;;;0.00;0.00;;;;;;;;;;5062913;28;20135;-68
2023/10/15 01:11:38;;;;;;;0.00;0.00;;;;;;;;;;5061709;28;20044;-68
2023/10/15 01:14:10;;;;;;;0.10;0.10;;;;;;;;;;5065740;28;20070;-68
2023/10/15 01:16:39;;;;;;;0.10;0.10;;;;;;;;;;5060849;28;20116;-68
2023/10/15 01:19:17;;;;;;;0.00;0.00;;;;;;;;;;5077624;28;20048;-68
2023/10/15 01:21:58;;;;;;;0.00;0.00;;;;;;;;;;5062904;28;20043;-68
2023/10/15 01:24:26;;;;;;;0.00;0.00;;;;;;;;;;5079952;28;20101;-68
2023/10/15 01:27:10;;;;;;;0.00;0.00;;;;;;;;;;5080200;28;20643;-68
2023/10/15 01:29:42;;;;;;;0.00;0.00;;;;;;;;;;5075645;28;20435;-68
2023/10/15 01:32:18;;;;;;;0.00;0.00;;;;;;;;;;5080674;28;20513;-68
2023/10/15 01:34:48;;;;;;;0.10;0.10;;;;;;;;;;5079449;28;20510;-68
2023/10/15 01:39:51;;;;;;;0.00;0.00;;;;;;;;;;5065919;28;20048;-68
2023/10/15 01:45:09;;;;;;;0.00;0.00;;;;;;;;;;5067627;28;20151;-68
2023/10/15 01:47:37;;;;;;;0.00;0.00;;;;;;;;;;5064225;28;20076;-68
2023/10/15 01:50:15;;;;;;;0.00;0.00;;;;;;;;;;5079700;28;20052;-68
2023/10/15 01:52:42;;;;;;;0.00;0.00;;;;;;;;;;5082322;28;20694;-68
2023/10/15 01:55:13;;;;;;;0.00;0.00;;;;;;;;;;5079559;28;20059;-68
2023/10/15 01:57:41;;;;;;;0.00;0.00;;;;;;;;;;5077133;28;20047;-68
2023/10/15 02:00:13;;;;;;;0.00;0.00;;;;;;;;;;5062500;28;20424;-68
2023/10/15 02:02:42;;;;;;;;;;;;;;;;;;5082095;28;20371;-68
2023/10/15 02:05:27;;;;;;;0.55;0.55;;;;;;;;;;5061700;28;20006;-68
2023/10/15 02:07:56;;;;;;;0.00;0.00;;;;;;;;;;5076073;28;20098;-68
2023/10/15 02:10:24;;;;;;;0.00;0.00;;;;;;;;;;5074739;28;20091;-67
2023/10/15 02:12:59;;;;;;;0.00;0.00;;;;;;;;;;5078161;28;20131;-68
2023/10/15 02:15:38;;;;;;;0.00;0.00;;;;;;;;;;5078435;28;20051;-68
2023/10/15 02:18:29;;;;;;;0.30;0.30;;;;;;;;;;5059660;28;20044;-68
2023/10/15 02:23:25;;;;;;;0.00;0.00;;;;;;;;;;5064394;28;20506;-68
2023/10/15 02:26:00;;;;;;;0.40;0.40;;;;;;;;;;5070869;28;21737;-67
2023/10/15 02:28:35;;;;;;;0.00;0.00;;;;;;;;;;5059061;28;20063;-68
2023/10/15 02:33:39;;;;;;;0.00;0.00;;;;;;;;;;5082414;28;20037;-68
2023/10/15 02:36:09;;;;;;;0.00;0.00;;;;;;;;;;5081102;28;20047;-68
2023/10/15 02:38:39;;;;;;;0.00;0.00;;;;;;;;;;5079268;28;20409;-68
2023/10/15 02:41:08;;;;;;;0.00;0.00;;;;;;;;;;5081380;28;20076;-68
2023/10/15 02:43:36;;;;;;;0.00;0.00;;;;;;;;;;5063300;28;20121;-68
2023/10/15 02:46:17;;;;;;;0.00;0.00;;;;;;;;;;5065308;28;20480;-68
2023/10/15 02:48:47;;;;;;;0.00;0.00;;;;;;;;;;5050252;28;20095;-68
2023/10/15 02:51:23;;;;;;;0.00;0.00;;;;;;;;;;5080211;28;20058;-68
2023/10/15 02:54:37;;;;;;;0.10;0.10;;;;;;;;;;5099259;22;20075;-69
2023/10/15 02:56:41;;;;;;;0.00;0.00;;;;;;;;;;5029780;28;20045;-69
2023/10/15 02:59:08;;;;;;;0.00;0.00;;;;;;;;;;5013110;28;20042;-69
2023/10/15 03:01:38;;;;;;;0.00;0.00;;;;;;;;;;5015348;28;20053;-69
2023/10/15 03:04:09;;;;;;;0.00;0.00;;;;;;;;;;5012110;28;20171;-69
2023/10/15 03:06:41;;;;;;;0.00;0.00;;;;;;;;;;5009707;28;20100;-69
2023/10/15 03:09:11;;;;;;;;;;;;;;;;;;5018450;28;20107;-68
2023/10/15 03:11:39;;;;;;;0.00;0.00;;;;;;;;;;5015079;28;19921;-69
2023/10/15 03:14:06;;;;;;;0.00;0.00;;;;;;;;;;5008858;28;20049;-69
2023/10/15 03:16:35;;;;;;;0.10;0.10;;;;;;;;;;5016328;28;20049;-69
2023/10/15 03:19:17;;;;;;;0.28;0.28;;;;;;;;;;5031947;28;20503;-68
2023/10/15 03:21:45;;;;;;;0.00;0.00;;;;;;;;;;5030238;28;20061;-71
2023/10/15 03:24:17;;;;;;;0.00;0.00;;;;;;;;;;5013444;28;20049;-71
2023/10/15 03:26:47;;;;;;;0.00;0.00;;;;;;;;;;5029207;28;20052;-71
2023/10/15 03:29:15;;;;;;;0.05;0.05;;;;;;;;;;5029829;28;20475;-71
2023/10/15 03:31:48;;;;;;;0.00;0.00;;;;;;;;;;5029766;28;20061;-72
2023/10/15 03:34:21;;;;;;;0.00;0.00;;;;;;;;;;5024416;28;20084;-71
2023/10/15 03:36:59;;;;;;;0.00;0.00;;;;;;;;;;5013049;28;20049;-71
2023/10/15 03:42:09;;;;;;;0.00;0.00;;;;;;;;;;5031595;28;20043;-71
2023/10/15 03:44:45;;;;;;;0.00;0.00;;;;;;;;;;5029427;28;20069;-71
2023/10/15 03:47:14;;;;;;;0.00;0.00;;;;;;;;;;5031505;28;20045;-71
2023/10/15 03:49:44;;;;;;;0.13;0.13;;;;;;;;;;5034639;28;20509;-72
2023/10/15 03:52:20;;;;;;;0.00;0.00;;;;;;;;;;5031986;28;20502;-71
2023/10/15 03:54:49;;;;;;;0.10;0.10;;;;;;;;;;5030416;28;20041;-71
2023/10/15 03:57:27;;;;;;;0.10;0.10;;;;;;;;;;5017023;28;20136;-72
2023/10/15 03:59:55;;;;;;;0.00;0.00;;;;;;;;;;5024547;28;20053;-71
2023/10/15 04:02:46;;;;;;;0.20;0.20;;;;;;;;;;5029776;28;20600;-72
2023/10/15 04:05:14;;;;;;;0.00;0.00;;;;;;;;;;5030576;28;20389;-71
2023/10/15 04:07:49;;;;;;;0.00;0.00;;;;;;;;;;5029714;28;20045;-71
2023/10/15 04:10:23;;;;;;;0.10;0.10;;;;;;;;;;5032688;28;20045;-71
2023/10/15 04:12:52;;;;;;;0.00;0.00;;;;;;;;;;5012909;28;20343;-71
2023/10/15 04:15:21;;;;;;;0.10;0.10;;;;;;;;;;5027119;28;20054;-71
2023/10/15 04:17:51;;;;;;;0.10;0.10;;;;;;;;;;5031411;28;20061;-71
2023/10/15 04:20:33;;;;;;;0.10;0.10;;;;;;;;;;5028412;28;20049;-72
2023/10/15 04:23:01;;;;;;;0.05;0.05;;;;;;;;;;4992255;28;20140;-71
2023/10/15 04:25:32;;;;;;;0.00;0.00;;;;;;;;;;5012617;28;20459;-72
2023/10/15 04:28:09;;;;;;;0.00;0.00;;;;;;;;;;5027414;28;20057;-72
2023/10/15 04:30:40;;;;;;;0.00;0.00;;;;;;;;;;5026121;28;20136;-71
2023/10/15 04:33:13;;;;;;;0.20;0.20;;;;;;;;;;5029020;28;20533;-71
2023/10/15 04:35:41;;;;;;;0.10;0.10;;;;;;;;;;5027356;28;20709;-71
2023/10/15 04:38:09;;;;;;;0.00;0.00;;;;;;;;;;5031279;28;20052;-71
2023/10/15 04:40:48;;;;;;;0.10;0.10;;;;;;;;;;5024115;28;20057;-71
2023/10/15 04:43:15;;;;;;;0.03;0.03;;;;;;;;;;5024777;28;20073;-71
2023/10/15 04:45:44;;;;;;;0.10;0.10;;;;;;;;;;5023716;28;20041;-71
2023/10/15 04:48:15;;;;;;;0.00;0.00;;;;;;;;;;5021366;28;20470;-71
2023/10/15 04:50:43;;;;;;;0.10;0.10;;;;;;;;;;5028281;28;20077;-71
2023/10/15 04:53:12;;;;;;;0.00;0.00;;;;;;;;;;5027000;28;20511;-71
2023/10/15 04:55:44;;;;;;;0.00;0.00;;;;;;;;;;5026710;28;20530;-71
2023/10/15 04:58:12;;;;;;;0.10;0.10;;;;;;;;;;5027884;28;20045;-71
2023/10/15 05:00:40;;;;;;;0.03;0.03;;;;;;;;;;5029413;28;20116;-71
2023/10/15 05:03:09;;;;;;;0.00;0.00;;;;;;;;;;5028185;28;20510;-71
2023/10/15 05:05:37;;;;;;;0.25;0.25;;;;;;;;;;5030996;28;20158;-71
2023/10/15 05:08:10;;;;;;;0.08;0.08;;;;;;;;;;5025380;28;20427;-71
2023/10/15 05:10:50;;;;;;;0.00;0.00;;;;;;;;;;5030480;28;20055;-72
2023/10/15 05:13:19;;;;;;;0.00;0.00;;;;;;;;;;5031665;28;20124;-71
2023/10/15 05:15:47;;;;;;;0.00;0.00;;;;;;;;;;5027653;28;20051;-71
2023/10/15 05:18:15;;;;;;;0.03;0.03;;;;;;;;;;5028119;28;20041;-71
2023/10/15 05:20:52;;;;;;;0.10;0.10;;;;;;;;;;5028267;28;20053;-71
2023/10/15 05:23:20;;;;;;;0.13;0.13;;;;;;;;;;5023197;28;20399;-71
2023/10/15 05:25:49;;;;;;;0.00;0.00;;;;;;;;;;5026582;28;20052;-71
2023/10/15 05:28:17;;;;;;;0.00;0.00;;;;;;;;;;5030956;28;20467;-71
2023/10/15 05:30:45;;;;;;;0.00;0.00;;;;;;;;;;5027268;28;20045;-71
2023/10/15 05:33:13;;;;;;;0.00;0.00;;;;;;;;;;5030966;28;20054;-71
2023/10/15 05:35:44;;;;;;;0.10;0.10;;;;;;;;;;5025118;28;20418;-71
2023/10/15 05:38:16;;;;;;;0.10;0.10;;;;;;;;;;5006865;28;20115;-71
2023/10/15 05:40:47;;;;;;;0.00;0.00;;;;;;;;;;5031197;28;20042;-71
2023/10/15 05:43:15;;;;;;;0.10;0.10;;;;;;;;;;5029220;28;20124;-71
2023/10/15 05:45:47;;;;;;;0.10;0.10;;;;;;;;;;5024182;28;20499;-71
2023/10/15 05:48:17;;;;;;;0.10;0.10;;;;;;;;;;5013280;28;20538;-71
2023/10/15 05:50:49;;;;;;;0.30;0.30;;;;;;;;;;5028304;28;20042;-70
2023/10/15 05:53:16;;;;;;;0.13;0.13;;;;;;;;;;5029177;28;20049;-71
2023/10/15 05:55:44;;;;;;;0.10;0.10;;;;;;;;;;5024696;28;20634;-71
2023/10/15 05:58:12;;;;;;;0.00;0.00;;;;;;;;;;5021452;28;20525;-71
2023/10/15 06:00:40;;;;;;;0.10;0.10;;;;;;;;;;5022277;28;20056;-71
2023/10/15 06:03:09;;;;;;;0.65;0.65;;;;;;;;;;5024636;28;20057;-70
2023/10/15 06:05:36;;;;;;;0.10;0.10;;;;;;;;;;5024487;28;20495;-71
2023/10/15 06:08:04;;;;;;;0.00;0.00;;;;;;;;;;5028567;28;20046;-71
2023/10/15 06:10:32;;;;;;;0.57;0.57;;;;;;;;;;5021753;28;20077;-72
2023/10/15 06:13:01;;;;;;;0.10;0.10;;;;;;;;;;5019972;28;20163;-71
2023/10/15 06:15:30;;;;;;;0.25;0.25;;;;;;;;;;5018856;28;20045;-71
2023/10/15 06:17:58;;;;;;;0.17;0.17;;;;;;;;;;5021941;28;20049;-74
2023/10/15 06:20:26;;;;;;;0.10;0.10;;;;;;;;;;5021639;28;20077;-73
2023/10/15 06:22:57;;;;;;;0.10;0.10;;;;;;;;;;5020071;28;20504;-75
2023/10/15 06:25:24;;;;;;;0.10;0.10;;;;;;;;;;5014752;28;20045;-74
2023/10/15 06:27:52;;;;;;;0.17;0.17;;;;;;;;;;5016085;28;20054;-75
2023/10/15 06:30:20;;;;;;;0.00;0.00;;;;;;;;;;5033128;28;20055;-73
2023/10/15 06:32:52;;;;;;;0.10;0.10;;;;;;;;;;5018952;28;20121;-71
2023/10/15 06:35:22;;;;;;;0.00;0.00;;;;;;;;;;5016472;28;20049;-71
2023/10/15 06:37:55;;;;;;;0.10;0.10;;;;;;;;;;5002234;28;20105;-71
2023/10/15 06:40:24;;;;;;;0.00;0.00;;;;;;;;;;5025470;28;20045;-71
2023/10/15 06:42:52;;;;;;;0.10;0.10;;;;;;;;;;5027251;28;20160;-71
2023/10/15 06:45:20;;;;;;;0.08;0.08;;;;;;;;;;5022681;28;20045;-70
2023/10/15 06:47:52;;;;;;;0.10;0.10;;;;;;;;;;5025267;28;21521;-71
2023/10/15 06:50:22;;;;;;;3.97;0.75;;;;;;;;;;5021269;28;20049;-71
2023/10/15 06:52:54;;;;;;;0.10;0.10;;;;;;;;;;5026794;28;20045;-71
2023/10/15 06:55:21;;;;;;;0.10;0.10;;;;;;;;;;5021950;28;20128;-71
2023/10/15 06:57:49;;;;;;;0.00;0.00;;;;;;;;;;5024217;28;20071;-71
2023/10/15 07:00:23;;;;;;;0.30;0.30;;;;;;;;;;5030878;28;20662;-70
2023/10/15 07:02:52;;;;;;;0.00;0.00;;;;;;;;;;5027778;28;20071;-71
2023/10/15 07:05:26;;;;;;;0.00;0.00;;;;;;;;;;5023101;28;20396;-71
2023/10/15 07:07:56;;;;;;;0.10;0.10;;;;;;;;;;5026493;28;20104;-71
2023/10/15 07:10:25;;;;;;;0.00;0.00;;;;;;;;;;5026633;28;20052;-72
2023/10/15 07:12:54;;;;;;;0.00;0.00;;;;;;;;;;5021280;28;20086;-71
2023/10/15 07:15:23;;;;;;;0.10;0.10;;;;;;;;;;5028153;28;20056;-71
2023/10/15 07:17:51;;;;;;;0.08;0.08;;;;;;;;;;5028305;28;20061;-71
2023/10/15 07:20:26;;;;;;;0.90;0.90;;;;;;;;;;5033149;28;20045;-71
2023/10/15 07:22:56;;;;;;;0.25;0.25;;;;;;;;;;5015248;28;20084;-71
2023/10/15 07:25:25;;;;;;;0.00;0.00;;;;;;;;;;5028889;28;20765;-72
2023/10/15 07:27:53;;;;;;;0.00;0.00;;;;;;;;;;5030636;28;20422;-72
2023/10/15 07:30:21;;;;;;;0.10;0.10;;;;;;;;;;5031905;28;20053;-71
2023/10/15 07:32:58;;;;;;;0.10;0.10;;;;;;;;;;5012658;28;20048;-71
2023/10/15 07:35:28;;;;;;;0.10;0.10;;;;;;;;;;5037933;28;20517;-71
2023/10/15 07:38:02;;;;;;;0.10;0.10;;;;;;;;;;5029678;28;20069;-71
2023/10/15 07:40:32;;;;;;;0.15;0.15;;;;;;;;;;5029013;28;20069;-71
2023/10/15 07:43:02;;;;;;;0.20;0.20;;;;;;;;;;5027683;28;20549;-71
2023/10/15 07:45:31;;;;;;;0.15;0.15;;;;;;;;;;5030318;28;20129;-71
2023/10/15 07:48:00;;;;;;;0.57;0.57;;;;;;;;;;5031274;28;20053;-71
2023/10/15 07:50:29;;;;;;;0.10;0.10;;;;;;;;;;5035077;28;20130;-71
2023/10/15 07:52:57;;;;;;;0.03;0.03;;;;;;;;;;5025966;28;20053;-71
2023/10/15 07:55:24;;;;;;;0.32;0.28;;;;;;;;;;5028315;28;20443;-71
2023/10/15 07:57:52;;;;;;;0.00;0.00;;;;;;;;;;5027209;28;20053;-72
2023/10/15 08:00:23;;;;;;;0.00;0.00;;;;;;;;;;5027618;28;20045;-71
2023/10/15 08:02:52;;;;;;;0.10;0.10;;;;;;;;;;5029224;28;20511;-71
2023/10/15 08:05:21;;;;;;;0.00;0.00;;;;;;;;;;5029403;28;20354;-71
2023/10/15 08:07:50;;;;;;;0.00;0.00;;;;;;;;;;5030054;28;20645;-71
2023/10/15 08:10:20;;;;;;;0.10;0.10;;;;;;;;;;5032003;28;20053;-71
2023/10/15 08:12:49;;;;;;;0.10;0.10;;;;;;;;;;5028108;28;20048;-71
2023/10/15 08:15:17;;;;;;;0.10;0.10;;;;;;;;;;5028723;28;20392;-72
2023/10/15 08:17:46;;;;;;;0.70;0.55;;;;;;;;;;5010998;28;20045;-71
2023/10/15 08:20:14;;;;;;;0.00;0.00;;;;;;;;;;5025395;28;20041;-71
2023/10/15 08:22:44;;;;;;;0.28;0.28;;;;;;;;;;5004491;28;20076;-71
2023/10/15 08:25:19;;;;;;;0.03;0.03;;;;;;;;;;5026539;28;20038;-71
2023/10/15 08:27:46;;;;;;;0.00;0.00;;;;;;;;;;5023807;28;20056;-71
2023/10/15 08:30:14;;;;;;;0.00;0.00;;;;;;;;;;5025800;28;20057;-71
2023/10/15 08:32:46;;;;;;;1.95;1.88;;;;;;;;;;5015476;28;20494;-72
2023/10/15 08:35:15;;;;;;;0.10;0.10;;;;;;;;;;5025156;28;20431;-71
2023/10/15 08:37:46;;;;;;;0.00;0.00;;;;;;;;;;5026174;28;20116;-71
2023/10/15 08:40:17;;;;;;;0.00;0.00;;;;;;;;;;5022016;28;20582;-72
2023/10/15 08:42:59;;;;;;;0.80;0.80;;;;;;;;;;5021106;28;20241;-71
2023/10/15 08:45:27;;;;;;;0.05;0.05;;;;;;;;;;5027065;28;20068;-71
2023/10/15 08:47:54;;;;;;;0.00;0.00;;;;;;;;;;5024542;28;20060;-72
2023/10/15 08:50:22;;;;;;;0.00;0.00;;;;;;;;;;5022682;28;20059;-72
2023/10/15 08:52:53;;;;;;;0.65;0.52;;;;;;;;;;5009018;28;20144;-72
2023/10/15 08:55:24;;;;;;;0.10;0.10;;;;;;;;;;5026424;28;20499;-71
2023/10/15 08:57:54;;;;;;;0.52;0.43;;;;;;;;;;5020792;28;20521;-71
2023/10/15 09:00:27;;;;;;;0.03;0.03;;;;;;;;;;5018532;28;20045;-71
2023/10/15 09:03:00;;;;;;;0.10;0.10;;;;;;;;;;5021174;28;20076;-72
2023/10/15 09:05:40;;;;;;;0.00;0.00;;;;;;;;;;5004454;28;20084;-71
2023/10/15 09:08:08;;;;;;;0.00;0.00;;;;;;;;;;5020585;28;20155;-72
2023/10/15 09:10:40;;;;;;;0.10;0.10;;;;;;;;;;5021938;28;20555;-71
2023/10/15 09:13:14;;;;;;;;;;;;;;;;;;5022792;28;20060;-72
2023/10/15 09:15:43;;;;;;;0.00;0.00;;;;;;;;;;4988657;28;20450;-71
2023/10/15 09:18:11;;;;;;;0.00;0.00;;;;;;;;;;5002849;28;20586;-71
2023/10/15 09:20:42;;;;;;;0.10;0.10;;;;;;;;;;5024058;28;20041;-71
2023/10/15 09:23:10;;;;;;;0.85;0.35;;;;;;;;;;5023351;28;20407;-72
2023/10/15 09:25:41;;;;;;;0.00;0.00;;;;;;;;;;5023964;28;20064;-71
2023/10/15 09:28:09;;;;;;;0.10;0.10;;;;;;;;;;5024685;28;20152;-72
2023/10/15 09:30:36;;;;;;;0.00;0.00;;;;;;;;;;5027319;28;20060;-72
2023/10/15 09:33:12;;;;;;;0.15;0.15;;;;;;;;;;5027747;28;20067;-71
2023/10/15 09:35:40;;;;;;;0.00;0.00;;;;;;;;;;5025864;28;20059;-72
2023/10/15 09:38:10;;;;;;;0.00;0.00;;;;;;;;;;5019646;28;20057;-71
2023/10/15 09:40:38;;;;;;;0.00;0.00;;;;;;;;;;5023339;28;20048;-72
2023/10/15 09:43:08;;;;;;;0.32;0.32;;;;;;;;;;5025388;28;20056;-72
2023/10/15 09:45:35;;;;;;;0.10;0.10;;;;;;;;;;5012031;28;20041;-72
2023/10/15 09:48:03;;;;;;;0.00;0.00;;;;;;;;;;5026308;28;20463;-71
2023/10/15 09:50:38;;;;;;;0.00;0.00;;;;;;;;;;5011593;28;20046;-71
2023/10/15 09:53:12;;;;;;;0.00;0.00;;;;;;;;;;5024855;28;20045;-72
2023/10/15 09:55:41;;;;;;;0.10;0.10;;;;;;;;;;5022637;28;20092;-72
2023/10/15 09:58:10;;;;;;;0.00;0.00;;;;;;;;;;5025934;28;20054;-71
2023/10/15 10:00:46;;;;;;;0.00;0.00;;;;;;;;;;5025865;28;20049;-71
2023/10/15 10:03:33;;;;;;;0.22;0.22;;;;;;;;;;5026289;28;20050;-72
2023/10/15 10:06:18;;;;;;;0.75;0.75;;;;;;;;;;5023318;28;20053;-71
2023/10/15 10:08:48;;;;;;;0.10;0.10;;;;;;;;;;5021042;28;20050;-71
2023/10/15 10:11:25;;;;;;;0.20;0.20;;;;;;;;;;5027036;28;20421;-71
2023/10/15 10:14:03;;;;;;;0.00;0.00;;;;;;;;;;5023360;28;20411;-72
2023/10/15 10:16:31;;;;;;;0.10;0.10;;;;;;;;;;5023918;28;20085;-72
2023/10/15 10:18:58;;;;;;;0.20;0.20;;;;;;;;;;5022161;28;20466;-71
2023/10/15 10:21:30;;;;;;;0.10;0.10;;;;;;;;;;5023939;28;20056;-71
2023/10/15 10:23:58;;;;;;;0.43;0.43;;;;;;;;;;5023264;28;20083;-71
2023/10/15 10:26:27;;;;;;;0.45;0.45;;;;;;;;;;5020328;28;20049;-71
2023/10/15 10:28:56;;;;;;;0.20;0.20;;;;;;;;;;5021018;28;20507;-72
2023/10/15 10:31:24;;;;;;;0.10;0.10;;;;;;;;;;5022006;28;20399;-71
2023/10/15 10:33:54;;;;;;;0.17;0.17;;;;;;;;;;5032302;28;20053;-71
2023/10/15 10:36:26;;;;;;;0.30;0.30;;;;;;;;;;5030296;28;20048;-71
2023/10/15 10:38:54;;;;;;;;;;;;;;;;;;5028018;28;20443;-71
2023/10/15 10:41:22;;;;;;;0.00;0.00;;;;;;;;;;5024563;28;20377;-72
2023/10/15 10:43:53;;;;;;;0.13;0.13;;;;;;;;;;5026762;28;20068;-70
2023/10/15 10:46:41;;;;;;;0.10;0.10;;;;;;;;;;5026737;28;20046;-71
2023/10/15 10:49:13;;;;;;;0.43;0.43;;;;;;;;;;5024574;28;20054;-71
2023/10/15 10:51:42;;;;;;;0.08;0.08;;;;;;;;;;5031131;28;20049;-71
2023/10/15 10:54:09;;;;;;;0.00;0.00;;;;;;;;;;5031248;28;20052;-71
2023/10/15 10:56:40;;;;;;;2.83;2.58;;;;;;;;;;5028153;28;20132;-71
2023/10/15 10:59:08;;;;;;;0.13;0.13;;;;;;;;;;5032045;28;20049;-71
2023/10/15 11:01:37;;;;;;;0.20;0.20;;;;;;;;;;5031208;28;20045;-72
2023/10/15 11:04:15;;;;;;;0.10;0.10;;;;;;;;;;5026799;28;20045;-72
2023/10/15 11:06:48;;;;;;;0.13;0.13;;;;;;;;;;5026201;28;20576;-72
2023/10/15 11:09:16;;;;;;;0.00;0.00;;;;;;;;;;5026417;28;20111;-71
2023/10/15 11:11:51;;;;;;;0.20;0.20;;;;;;;;;;5026577;28;20049;-71
2023/10/15 11:14:29;;;;;;;0.13;0.13;;;;;;;;;;5027090;28;20527;-71
2023/10/15 11:16:57;;;;;;;0.10;0.10;;;;;;;;;;5028698;28;20080;-72
2023/10/15 11:19:25;;;;;;;0.00;0.00;;;;;;;;;;5026001;28;20040;-72
2023/10/15 11:21:53;;;;;;;0.13;0.13;;;;;;;;;;5024000;28;20463;-72
2023/10/15 11:24:23;;;;;;;0.10;0.10;;;;;;;;;;5030824;28;20060;-72
2023/10/15 11:26:54;;;;;;;0.10;0.10;;;;;;;;;;5028444;28;20286;-72
2023/10/15 11:29:23;;;;;;;0.10;0.10;;;;;;;;;;5030446;28;20533;-71
2023/10/15 11:31:55;;;;;;;0.28;0.28;;;;;;;;;;5028630;28;20045;-72
2023/10/15 11:34:24;;;;;;;0.08;0.08;;;;;;;;;;5028122;28;20053;-72
2023/10/15 11:36:55;;;;;;;0.10;0.10;;;;;;;;;;5032527;28;21131;-72
2023/10/15 11:39:37;;;;;;;0.20;0.20;;;;;;;;;;5031132;28;20132;-71
2023/10/15 11:42:07;;;;;;;0.00;0.00;;;;;;;;;;5016567;28;20296;-71
2023/10/15 11:44:42;;;;;;;0.10;0.10;;;;;;;;;;5022315;28;20045;-71
2023/10/15 11:47:19;;;;;;;0.30;0.30;;;;;;;;;;5029207;28;20048;-70
2023/10/15 11:49:50;;;;;;;1.55;0.57;;;;;;;;;;5025063;28;20148;-71
2023/10/15 11:52:22;;;;;;;0.20;0.20;;;;;;;;;;5030989;28;20045;-70
2023/10/15 11:54:50;;;;;;;6.07;0.20;;;;;;;;;;5027052;28;20053;-70
2023/10/15 11:57:26;;;;;;;0.10;0.10;;;;;;;;;;5021202;28;20566;-70
2023/10/15 11:59:54;;;;;;;0.20;0.20;;;;;;;;;;5027577;28;20057;-70
2023/10/15 12:02:25;;;;;;;0.50;0.45;;;;;;;;;;5022706;28;20047;-70
2023/10/15 12:04:56;;;;;;;0.00;0.00;;;;;;;;;;5026698;28;20049;-70
2023/10/15 12:07:28;;;;;;;;;;;;;;;;;;5027421;28;20045;-70
2023/10/15 12:09:55;;;;;;;0.05;0.05;;;;;;;;;;5024811;28;20024;-70
2023/10/15 12:12:23;;;;;;;0.10;0.10;;;;;;;;;;5025621;28;20112;-70
2023/10/15 12:14:50;;;;;;;0.03;0.03;;;;;;;;;;5026294;28;20061;-70
2023/10/15 12:17:17;;;;;;;0.10;0.10;;;;;;;;;;5021796;28;20077;-70
2023/10/15 12:19:47;;;;;;;0.03;0.03;;;;;;;;;;5009030;28;20081;-71
2023/10/15 12:22:21;;;;;;;0.08;0.08;;;;;;;;;;5017570;28;20046;-73
2023/10/15 12:24:48;;;;;;;0.10;0.10;;;;;;;;;;5013945;28;20507;-73
2023/10/15 12:27:16;;;;;;;0.10;0.10;;;;;;;;;;5023212;28;20461;-71
2023/10/15 12:29:43;;;;;;;0.30;0.30;;;;;;;;;;5023287;28;20518;-72
2023/10/15 12:32:12;;;;;;;0.20;0.20;;;;;;;;;;5020037;28;20049;-72
2023/10/15 12:34:40;;;;;;;0.25;0.25;;;;;;;;;;5014133;28;20052;-73
2023/10/15 12:37:08;;;;;;;0.30;0.22;;;;;;;;;;5023010;28;20059;-73
2023/10/15 12:39:40;;;;;;;0.10;0.10;;;;;;;;;;5015621;28;20491;-73
2023/10/15 12:42:09;;;;;;;0.63;0.25;;;;;;;;;;5019095;28;20108;-73
2023/10/15 12:44:40;;;;;;;0.10;0.10;;;;;;;;;;5022190;28;20057;-71
2023/10/15 12:47:08;;;;;;;0.30;0.28;;;;;;;;;;5018270;28;20109;-73
2023/10/15 12:49:37;;;;;;;0.10;0.10;;;;;;;;;;4997053;28;20054;-73
2023/10/15 12:52:05;;;;;;;0.10;0.10;;;;;;;;;;5006287;28;20060;-72
2023/10/15 12:54:33;;;;;;;6.85;0.32;;;;;;;;;;5015030;28;20759;-72
2023/10/15 12:57:04;;;;;;;1.25;0.77;;;;;;;;;;5019691;28;20522;-72
2023/10/15 12:59:31;;;;;;;0.00;0.00;;;;;;;;;;5015583;28;20045;-74
2023/10/15 13:02:04;;;;;;;0.10;0.10;;;;;;;;;;4997547;28;20239;-74
2023/10/15 13:04:32;;;;;;;0.40;0.40;;;;;;;;;;5016758;28;20042;-74
2023/10/15 13:07:03;;;;;;;0.20;0.10;;;;;;;;;;5017891;28;20050;-73
2023/10/15 13:09:32;;;;;;;0.00;0.00;;;;;;;;;;5021420;28;20041;-74
2023/10/15 13:12:01;;;;;;;2.08;0.30;;;;;;;;;;5019930;28;20049;-74
2023/10/15 13:14:29;;;;;;;0.00;0.00;;;;;;;;;;5024924;28;20140;-74
2023/10/15 13:16:57;;;;;;;0.10;0.10;;;;;;;;;;5022735;28;20045;-73
2023/10/15 13:19:26;;;;;;;0.20;0.20;;;;;;;;;;5027704;28;20053;-73
2023/10/15 13:21:53;;;;;;;0.10;0.10;;;;;;;;;;5026161;28;20049;-72
2023/10/15 13:24:21;;;;;;;0.30;0.30;;;;;;;;;;5029240;28;20045;-72
2023/10/15 13:26:48;;;;;;;1.00;0.73;;;;;;;;;;5006331;28;20381;-71
2023/10/15 13:29:16;;;;;;;0.20;0.20;;;;;;;;;;5023962;28;20296;-72
2023/10/15 13:31:43;;;;;;;0.43;0.43;;;;;;;;;;5016519;28;20132;-72
2023/10/15 13:34:12;;;;;;;1.35;0.98;;;;;;;;;;5019706;28;20049;-72
2023/10/15 13:36:39;;;;;;;0.28;0.28;;;;;;;;;;5021777;28;20045;-72
2023/10/15 13:39:15;;;;;;;0.28;0.28;;;;;;;;;;4988864;28;22773;-71
2023/10/15 13:41:43;;;;;;;0.00;0.00;;;;;;;;;;5018986;28;20049;-74
2023/10/15 13:44:11;;;;;;;0.30;0.30;;;;;;;;;;5023127;28;20128;-72
2023/10/15 13:46:44;;;;;;;0.22;0.22;;;;;;;;;;5017742;28;20053;-72
2023/10/15 13:49:12;;;;;;;0.10;0.10;;;;;;;;;;5021803;28;20054;-72
2023/10/15 13:51:40;;;;;;;0.00;0.00;;;;;;;;;;5007146;28;20105;-72
2023/10/15 13:54:08;;;;;;;0.88;0.35;;;;;;;;;;5013716;28;20045;-72
2023/10/15 13:56:35;;;;;;;0.00;0.00;;;;;;;;;;5027522;28;20045;-72
2023/10/15 13:59:04;;;;;;;0.10;0.10;;;;;;;;;;5020610;28;20136;-73
2023/10/15 14:01:32;;;;;;;0.10;0.10;;;;;;;;;;5014516;28;20049;-72
2023/10/15 14:04:00;;;;;;;0.77;0.50;;;;;;;;;;5024758;28;20045;-71
2023/10/15 14:06:28;;;;;;;0.10;0.10;;;;;;;;;;5020597;28;20073;-72
2023/10/15 14:08:55;;;;;;;2.78;2.67;;;;;;;;;;5023099;28;20411;-72
2023/10/15 14:11:22;;;;;;;0.20;0.20;;;;;;;;;;5023999;28;20044;-72
2023/10/15 14:13:50;;;;;;;1.80;1.70;;;;;;;;;;5022122;28;20050;-72
2023/10/15 14:16:18;;;;;;;0.52;0.52;;;;;;;;;;5009631;28;20411;-71
2023/10/15 14:18:47;;;;;;;0.03;0.03;;;;;;;;;;5022618;28;20472;-72
2023/10/15 14:21:16;;;;;;;0.00;0.00;;;;;;;;;;5022521;28;20034;-72
2023/10/15 14:23:43;;;;;;;0.10;0.10;;;;;;;;;;5011632;28;20048;-72
2023/10/15 14:26:12;;;;;;;1.45;0.20;;;;;;;;;;5027641;28;20117;-72
2023/10/15 14:28:42;;;;;;;0.10;0.10;;;;;;;;;;5031609;28;20121;-72
2023/10/15 14:31:11;;;;;;;0.10;0.10;;;;;;;;;;5030871;28;20503;-71
2023/10/15 14:33:39;;;;;;;0.00;0.00;;;;;;;;;;5024256;28;20049;-73
2023/10/15 14:36:07;;;;;;;0.10;0.10;;;;;;;;;;5029857;28;20053;-71
2023/10/15 14:38:34;;;;;;;0.00;0.00;;;;;;;;;;5030935;28;20111;-72
2023/10/15 14:41:02;;;;;;;0.10;0.10;;;;;;;;;;5031253;28;20414;-71
2023/10/15 14:43:30;;;;;;;0.20;0.20;;;;;;;;;;5028372;28;20450;-72
2023/10/15 14:45:58;;;;;;;0.10;0.10;;;;;;;;;;5031819;28;20042;-72
2023/10/15 14:48:26;;;;;;;0.47;0.47;;;;;;;;;;5015292;28;20128;-71
2023/10/15 14:50:54;;;;;;;0.13;0.13;;;;;;;;;;5028591;28;20411;-72
2023/10/15 14:53:21;;;;;;;4.28;4.07;;;;;;;;;;5032686;28;20463;-72
2023/10/15 14:55:49;;;;;;;0.35;0.35;;;;;;;;;;5064747;22;20056;-73
2023/10/15 14:58:16;;;;;;;0.05;0.05;;;;;;;;;;5067837;28;20094;-73
2023/10/15 15:00:44;;;;;;;0.30;0.30;;;;;;;;;;5066810;28;20044;-73
2023/10/15 15:03:11;;;;;;;0.05;0.05;;;;;;;;;;5067228;28;20072;-73
2023/10/15 15:05:39;;;;;;;0.05;0.05;;;;;;;;;;5067099;28;20094;-73
2023/10/15 15:08:06;;;;;;;0.00;0.00;;;;;;;;;;5065966;28;20040;-73
2023/10/15 15:10:37;;;;;;;0.73;0.73;;;;;;;;;;5064112;28;20049;-72
2023/10/15 15:13:04;;;;;;;0.00;0.00;;;;;;;;;;5066120;28;20067;-72
2023/10/15 15:15:32;;;;;;;0.00;0.00;;;;;;;;;;5066366;28;20513;-72
2023/10/15 15:17:59;;;;;;;0.20;0.20;;;;;;;;;;5067066;28;20060;-73
2023/10/15 15:20:27;;;;;;;0.00;0.00;;;;;;;;;;5066058;28;20502;-72
2023/10/15 15:22:54;;;;;;;0.10;0.10;;;;;;;;;;5064397;28;20056;-72